createdAt,value
2019-03-12T00:00:41.915Z,96.00
2019-03-12T00:03:12.665Z,96.10
2019-03-12T00:05:43.792Z,96.10
2019-03-12T00:08:14.553Z,96.10
2019-03-12T00:10:45.312Z,96.10
2019-03-12T00:13:15.990Z,96.20
2019-03-12T00:15:46.759Z,96.30
2019-03-12T00:18:17.503Z,96.40
2019-03-12T00:20:48.194Z,96.40
2019-03-12T00:23:18.915Z,96.40
2019-03-12T00:25:50.005Z,96.40
2019-03-12T00:28:20.830Z,96.50
2019-03-12T00:30:51.756Z,96.60
2019-03-12T00:33:22.454Z,96.70
2019-03-12T00:35:53.130Z,96.70
2019-03-12T00:38:23.886Z,96.60
2019-03-12T00:40:54.555Z,96.70
2019-03-12T00:43:25.498Z,96.70
2019-03-12T00:45:57.111Z,96.70
2019-03-12T00:48:27.742Z,96.70
2019-03-12T00:50:58.560Z,96.80
2019-03-12T00:53:29.295Z,96.80
2019-03-12T00:55:59.998Z,96.80
2019-03-12T00:58:30.748Z,96.80
2019-03-12T01:01:01.550Z,96.80
2019-03-12T01:03:32.288Z,96.80
2019-03-12T01:06:03.078Z,96.90
2019-03-12T01:08:33.853Z,96.90
2019-03-12T01:11:04.587Z,97.00
2019-03-12T01:13:35.351Z,97.00
2019-03-12T01:16:06.129Z,97.10
2019-03-12T01:18:36.979Z,97.00
2019-03-12T01:21:08.273Z,97.10
2019-03-12T01:23:39.004Z,97.10
2019-03-12T01:26:09.786Z,97.10
2019-03-12T01:28:40.579Z,97.10
2019-03-12T01:31:11.398Z,97.00
2019-03-12T01:33:42.126Z,97.00
2019-03-12T01:36:12.766Z,97.00
2019-03-12T01:38:44.588Z,96.90
2019-03-12T01:41:15.398Z,96.70
2019-03-12T01:43:46.370Z,96.30
2019-03-12T01:46:17.163Z,96.00
2019-03-12T01:48:47.939Z,95.70
2019-03-12T02:09:36.001Z,94.90
2019-03-12T02:12:06.790Z,94.80
2019-03-12T02:14:38.573Z,94.80
2019-03-12T02:17:09.401Z,94.80
2019-03-12T02:19:40.161Z,94.80
2019-03-12T02:22:10.903Z,94.70
2019-03-12T02:24:52.242Z,94.40
2019-03-12T02:27:14.021Z,94.50
2019-03-12T02:29:44.693Z,94.60
2019-03-12T02:32:15.338Z,94.60
2019-03-12T02:34:46.070Z,94.60
2019-03-12T02:37:16.701Z,94.60
2019-03-12T02:39:48.499Z,94.60
2019-03-12T02:42:19.297Z,94.60
2019-03-12T02:44:50.316Z,94.60
2019-03-12T02:47:20.923Z,94.50
2019-03-12T02:49:52.073Z,94.50
2019-03-12T02:52:22.695Z,94.40
2019-03-12T02:54:53.337Z,94.40
2019-03-12T02:57:23.977Z,94.40
2019-03-12T02:59:54.806Z,94.50
2019-03-12T03:02:25.480Z,94.40
2019-03-12T03:04:56.183Z,94.40
2019-03-12T03:07:44.466Z,94.40
2019-03-12T03:10:15.574Z,94.40
2019-03-12T03:12:46.335Z,94.40
2019-03-12T03:15:25.103Z,94.50
2019-03-12T03:17:55.925Z,94.60
2019-03-12T03:20:26.616Z,94.60
2019-03-12T03:22:57.331Z,94.70
2019-03-12T03:25:28.053Z,94.70
2019-03-12T03:27:58.733Z,94.70
2019-03-12T03:30:32.099Z,94.80
2019-03-12T03:33:02.882Z,95.30
2019-03-12T03:35:33.585Z,95.00
2019-03-12T03:38:04.362Z,94.90
2019-03-12T03:40:35.186Z,95.00
2019-03-12T03:43:05.952Z,95.00
2019-03-12T03:45:36.795Z,95.00
2019-03-12T03:48:07.475Z,95.10
2019-03-12T03:50:38.328Z,95.20
2019-03-12T03:53:09.055Z,95.10
2019-03-12T03:55:39.794Z,95.20
2019-03-12T03:58:10.526Z,95.30
2019-03-12T04:00:41.245Z,95.40
2019-03-12T04:03:12.003Z,95.50
2019-03-12T04:05:42.666Z,95.50
2019-03-12T04:08:13.409Z,95.70
2019-03-12T04:10:44.907Z,95.80
2019-03-12T04:13:15.720Z,95.80
2019-03-12T04:15:46.502Z,95.90
2019-03-12T04:18:17.215Z,96.00
2019-03-12T04:20:48.009Z,96.10
2019-03-12T04:23:18.724Z,96.00
2019-03-12T04:25:49.542Z,96.10
2019-03-12T04:28:20.210Z,96.00
2019-03-12T04:30:52.583Z,96.20
2019-03-12T04:34:18.747Z,96.30
2019-03-12T04:36:50.551Z,96.30
2019-03-12T04:39:21.278Z,96.30
2019-03-12T04:41:52.055Z,96.50
2019-03-12T04:44:22.778Z,96.50
2019-03-12T04:46:53.535Z,96.60
2019-03-12T04:49:24.221Z,96.60
2019-03-12T04:51:54.947Z,96.60
2019-03-12T04:54:26.331Z,96.70
2019-03-12T04:56:57.042Z,96.70
2019-03-12T04:59:27.838Z,97.10
2019-03-12T05:01:58.602Z,96.70
2019-03-12T05:04:29.488Z,96.70
2019-03-12T05:07:00.214Z,96.70
2019-03-12T05:09:30.934Z,96.70
2019-03-12T05:12:01.661Z,96.70
2019-03-12T05:14:33.360Z,96.60
2019-03-12T05:17:18.164Z,96.50
2019-03-12T05:19:48.851Z,96.50
2019-03-12T05:22:21.902Z,96.50
2019-03-12T05:24:52.729Z,96.40
2019-03-12T05:27:25.075Z,96.30
2019-03-12T05:29:55.971Z,95.90
2019-03-12T05:32:26.981Z,95.70
2019-03-12T05:34:59.218Z,95.90
2019-03-12T05:37:30.070Z,96.00
2019-03-12T05:40:00.747Z,96.10
2019-03-12T05:42:31.371Z,96.10
2019-03-12T05:45:03.811Z,95.90
2019-03-12T05:47:37.210Z,96.00
2019-03-12T05:50:08.698Z,96.00
2019-03-12T05:52:41.279Z,96.10
2019-03-12T05:55:13.689Z,96.00
2019-03-12T05:57:44.566Z,96.10
2019-03-12T06:00:16.239Z,96.10
2019-03-12T06:02:46.971Z,96.20
2019-03-12T06:05:17.698Z,96.40
2019-03-12T06:07:48.470Z,96.40
2019-03-12T06:10:19.450Z,96.50
2019-03-12T06:12:50.194Z,96.70
2019-03-12T06:15:20.959Z,96.80
2019-03-12T06:17:51.623Z,96.90
2019-03-12T06:20:22.420Z,96.50
2019-03-12T06:22:53.379Z,96.40
2019-03-12T06:25:24.168Z,96.60
2019-03-12T06:27:54.925Z,96.70
2019-03-12T06:30:26.136Z,96.70
2019-03-12T06:33:02.454Z,96.60
2019-03-12T06:35:40.481Z,96.40
2019-03-12T06:38:23.804Z,96.20
2019-03-12T06:41:16.521Z,96.20
2019-03-12T06:44:08.372Z,96.20
2019-03-12T06:47:14.147Z,96.10
2019-03-12T06:50:04.572Z,96.10
2019-03-12T06:52:44.642Z,95.90
2019-03-12T06:55:24.986Z,95.60
2019-03-12T06:58:26.947Z,95.70
2019-03-12T07:01:17.502Z,95.20
2019-03-12T07:04:11.418Z,95.00
2019-03-12T07:07:23.773Z,94.60
2019-03-12T07:10:05.014Z,94.40
2019-03-12T07:12:57.614Z,94.00
2019-03-12T07:15:41.407Z,93.70
2019-03-12T07:18:30.421Z,93.60
2019-03-12T07:21:32.209Z,93.10
2019-03-12T07:24:13.430Z,93.10
2019-03-12T07:27:01.813Z,92.30
2019-03-12T07:29:40.123Z,92.40
2019-03-12T07:32:32.743Z,92.20
2019-03-12T07:35:10.818Z,92.30
2019-03-12T07:37:50.683Z,92.00
2019-03-12T07:40:46.307Z,91.80
2019-03-12T07:43:25.797Z,91.80
2019-03-12T07:46:14.047Z,91.40
2019-03-12T07:49:03.101Z,91.50
2019-03-12T07:51:55.796Z,91.40
2019-03-12T07:54:34.808Z,91.20
2019-03-12T07:57:42.149Z,91.30
2019-03-12T08:00:34.617Z,91.30
2019-03-12T08:03:42.868Z,91.40
2019-03-12T08:06:44.543Z,91.20
2019-03-12T08:09:40.328Z,91.00
2019-03-12T08:12:48.668Z,90.50
2019-03-12T08:15:44.767Z,90.40
2019-03-12T08:18:40.338Z,90.20
2019-03-12T08:21:36.961Z,89.80
2019-03-12T08:24:42.098Z,88.90
2019-03-12T08:27:37.939Z,88.10
2019-03-12T08:30:28.561Z,87.10
2019-03-12T08:33:22.642Z,86.50
2019-03-12T08:36:21.233Z,86.60
2019-03-12T08:39:16.899Z,86.10
2019-03-12T08:42:02.688Z,86.50
2019-03-12T08:44:44.111Z,86.60
2019-03-12T08:47:32.317Z,86.10
2019-03-12T08:50:30.774Z,85.50
2019-03-12T08:53:24.855Z,84.90
2019-03-12T08:56:06.563Z,84.90
2019-03-12T08:58:47.179Z,84.60
2019-03-12T09:01:49.267Z,84.10
2019-03-12T09:04:48.440Z,83.80
2019-03-12T09:07:45.077Z,82.70
2019-03-12T09:10:31.362Z,82.10
2019-03-12T09:13:11.526Z,81.10
2019-03-12T09:15:55.448Z,80.50
2019-03-12T09:18:35.934Z,80.50
2019-03-12T09:21:20.891Z,80.70
2019-03-12T09:24:09.762Z,79.70
2019-03-12T09:27:05.447Z,78.10
2019-03-12T09:29:48.896Z,77.20
2019-03-12T09:32:37.788Z,77.70
2019-03-12T09:35:27.035Z,77.30
2019-03-12T09:38:08.905Z,77.00
2019-03-12T09:41:00.289Z,77.20
2019-03-12T09:43:58.894Z,77.40
2019-03-12T09:46:57.060Z,78.30
2019-03-12T09:49:46.433Z,76.50
2019-03-12T09:52:42.014Z,76.60
2019-03-12T09:55:35.581Z,76.80
2019-03-12T09:58:25.773Z,75.60
2019-03-12T10:01:14.084Z,76.20
2019-03-12T10:04:22.369Z,76.30
2019-03-12T10:07:11.005Z,76.70
2019-03-12T10:09:51.738Z,76.40
2019-03-12T10:12:53.986Z,76.20
2019-03-12T10:15:49.562Z,75.70
2019-03-12T10:18:45.342Z,75.30
2019-03-12T10:21:41.793Z,75.00
2019-03-12T10:24:47.370Z,75.20
2019-03-12T10:27:37.051Z,74.20
2019-03-12T10:30:39.956Z,74.10
2019-03-12T10:33:38.311Z,74.50
2019-03-12T10:36:37.411Z,73.30
2019-03-12T10:40:05.928Z,72.70
2019-03-12T10:43:09.938Z,72.30
2019-03-12T10:46:31.244Z,73.10
2019-03-12T10:49:06.007Z,72.60
2019-03-12T10:51:36.667Z,71.00
2019-03-12T10:58:07.116Z,71.40
2019-03-12T11:00:39.264Z,71.20
2019-03-12T11:03:10.016Z,71.40
2019-03-12T11:05:46.015Z,70.60
2019-03-12T11:08:15.726Z,70.40
2019-03-12T11:10:46.597Z,71.10
2019-03-12T11:13:17.384Z,71.20
2019-03-12T11:15:49.394Z,71.30
2019-03-12T11:18:20.221Z,70.70
2019-03-12T11:20:50.974Z,71.80
2019-03-12T11:23:21.791Z,70.20
2019-03-12T11:25:52.596Z,70.20
2019-03-12T11:28:26.994Z,69.90
2019-03-12T11:30:59.805Z,70.50
2019-03-12T11:33:30.959Z,69.90
2019-03-12T11:36:01.811Z,69.10
2019-03-12T11:38:33.898Z,70.20
2019-03-12T11:41:04.823Z,71.30
2019-03-12T11:43:35.575Z,70.50
2019-03-12T11:46:07.218Z,70.50
2019-03-12T11:48:40.992Z,69.20
2019-03-12T11:51:11.636Z,69.30
2019-03-12T11:53:42.455Z,68.70
2019-03-12T11:56:14.047Z,69.00
2019-03-12T11:58:44.903Z,69.00
2019-03-12T12:01:20.620Z,69.10
2019-03-12T12:03:51.332Z,70.60
2019-03-12T12:06:22.566Z,71.20
2019-03-12T12:08:53.494Z,72.50
2019-03-12T12:11:24.345Z,72.40
2019-03-12T12:13:55.055Z,72.60
2019-03-12T12:16:25.766Z,73.10
2019-03-12T12:18:56.514Z,72.80
2019-03-12T12:21:27.332Z,71.80
2019-03-12T12:23:58.025Z,70.00
2019-03-12T12:26:30.343Z,70.30
2019-03-12T12:29:01.054Z,69.90
2019-03-12T12:31:31.710Z,68.50
2019-03-12T12:34:02.527Z,68.00
2019-03-12T12:36:34.851Z,67.30
2019-03-12T12:39:07.309Z,67.70
2019-03-12T12:41:39.700Z,67.40
2019-03-12T12:44:10.502Z,68.30
2019-03-12T12:46:42.181Z,67.30
2019-03-12T12:49:13.913Z,67.40
2019-03-12T12:51:44.670Z,67.30
2019-03-12T12:54:15.341Z,66.60
2019-03-12T12:56:46.031Z,67.00
2019-03-12T12:59:16.758Z,66.90
2019-03-12T13:01:47.799Z,67.10
2019-03-12T13:04:18.540Z,66.80
2019-03-12T13:06:49.976Z,66.40
2019-03-12T13:09:20.855Z,66.90
2019-03-12T13:11:52.623Z,66.50
2019-03-12T13:14:23.419Z,64.90
2019-03-12T13:16:54.281Z,64.40
2019-03-12T13:19:25.616Z,64.80
2019-03-12T13:21:56.943Z,66.00
2019-03-12T13:24:27.696Z,64.40
2019-03-12T13:26:58.374Z,63.90
2019-03-12T13:29:29.058Z,63.00
2019-03-12T13:32:12.622Z,62.50
2019-03-12T13:34:32.288Z,62.90
2019-03-12T13:37:03.027Z,63.70
2019-03-12T13:39:33.698Z,65.20
2019-03-12T13:42:04.505Z,65.00
2019-03-12T13:44:35.328Z,64.90
2019-03-12T13:47:07.694Z,64.50
2019-03-12T13:49:38.543Z,65.30
2019-03-12T13:52:10.804Z,66.10
2019-03-12T13:54:41.538Z,65.10
2019-03-12T13:57:13.235Z,65.30
2019-03-12T13:59:44.014Z,66.00
2019-03-12T14:02:17.592Z,66.40
2019-03-12T14:04:48.557Z,65.90
2019-03-12T14:07:19.581Z,65.80
2019-03-12T14:10:00.699Z,64.90
2019-03-12T14:12:31.422Z,65.60
2019-03-12T14:15:02.248Z,65.80
2019-03-12T14:17:33.023Z,65.80
2019-03-12T14:20:39.143Z,66.50
2019-03-12T14:23:10.315Z,65.70
2019-03-12T14:25:43.897Z,65.70
2019-03-12T14:28:14.901Z,65.70
2019-03-12T14:30:46.062Z,65.50
2019-03-12T14:33:16.922Z,65.20
2019-03-12T14:35:51.728Z,66.00
2019-03-12T14:38:51.847Z,65.40
2019-03-12T14:41:25.389Z,65.20
2019-03-12T14:48:52.388Z,66.00
2019-03-12T14:51:58.585Z,65.50
2019-03-12T14:54:30.785Z,66.70
2019-03-12T14:57:02.603Z,65.90
2019-03-12T14:59:33.442Z,65.80
2019-03-12T15:02:09.600Z,65.80
2019-03-12T15:04:40.823Z,65.90
2019-03-12T15:07:11.922Z,65.90
2019-03-12T15:09:42.994Z,66.50
2019-03-12T15:12:13.900Z,65.30
2019-03-12T15:14:44.939Z,65.30
2019-03-12T15:17:16.383Z,65.00
2019-03-12T15:19:47.299Z,65.40
2019-03-12T15:22:18.026Z,65.20
2019-03-12T15:24:48.816Z,65.30
2019-03-12T15:27:21.383Z,65.40
2019-03-12T15:29:52.286Z,64.70
2019-03-12T15:32:46.935Z,65.20
2019-03-12T15:35:27.271Z,65.00
2019-03-12T15:37:58.193Z,65.70
2019-03-12T15:40:34.661Z,66.40
2019-03-12T15:43:34.472Z,66.50
2019-03-12T15:46:31.449Z,65.90
2019-03-12T15:49:05.947Z,66.20
2019-03-12T15:52:43.844Z,66.20
2019-03-12T15:55:56.008Z,66.30
2019-03-12T15:58:30.916Z,66.40
2019-03-12T16:01:23.838Z,66.00
2019-03-12T16:04:01.828Z,66.90
2019-03-12T16:06:34.469Z,66.90
2019-03-12T16:09:08.205Z,66.90
2019-03-12T16:11:55.057Z,67.90
2019-03-12T16:14:23.872Z,68.50
2019-03-12T16:16:58.238Z,67.70
2019-03-12T16:19:35.580Z,67.30
2019-03-12T16:22:16.289Z,67.60
2019-03-12T16:24:56.086Z,68.10
2019-03-12T16:27:37.568Z,70.60
2019-03-12T16:31:00.005Z,71.50
2019-03-12T16:37:43.727Z,71.80
2019-03-12T16:40:19.631Z,72.00
2019-03-12T16:42:53.211Z,72.80
2019-03-12T16:45:23.925Z,72.90
2019-03-12T16:56:58.649Z,72.80
2019-03-12T17:10:39.634Z,74.10
2019-03-12T17:14:39.379Z,73.40
2019-03-12T17:17:12.656Z,72.90
2019-03-12T17:19:43.533Z,72.60
2019-03-12T17:22:14.724Z,72.40
2019-03-12T17:24:48.972Z,72.10
2019-03-12T17:27:25.556Z,72.10
2019-03-12T17:38:16.633Z,78.70
2019-03-12T17:40:48.959Z,80.90
2019-03-12T17:43:22.415Z,81.90
2019-03-12T17:45:54.586Z,82.80
2019-03-12T17:48:25.489Z,83.80
2019-03-12T17:50:57.400Z,84.30
2019-03-12T17:53:28.143Z,85.50
2019-03-12T17:55:59.040Z,87.10
2019-03-12T17:58:30.509Z,89.40
2019-03-12T18:01:01.384Z,88.90
2019-03-12T18:03:32.835Z,89.70
2019-03-12T18:06:05.708Z,90.10
2019-03-12T18:08:36.498Z,90.00
2019-03-12T18:11:07.677Z,90.20
2019-03-12T18:13:41.760Z,90.50
2019-03-12T18:28:24.495Z,91.50
2019-03-12T18:31:24.619Z,92.10
2019-03-12T18:34:02.790Z,92.70
2019-03-12T18:37:25.667Z,92.90
2019-03-12T18:40:30.264Z,92.80
2019-03-12T18:43:34.330Z,92.90
2019-03-12T18:46:51.487Z,93.40
2019-03-12T18:49:50.479Z,93.50
2019-03-12T18:53:12.805Z,93.80
2019-03-12T18:56:13.738Z,93.80
2019-03-12T18:58:44.633Z,94.20
2019-03-12T19:23:56.919Z,96.50
2019-03-12T19:26:28.309Z,97.10
2019-03-12T19:29:00.628Z,97.50
2019-03-12T19:31:56.159Z,97.80
2019-03-12T19:34:35.591Z,97.80
2019-03-12T19:37:50.548Z,97.70
2019-03-12T19:43:18.933Z,98.20
2019-03-12T19:45:52.348Z,98.10
2019-03-12T19:48:23.448Z,98.20
2019-03-12T19:50:56.634Z,98.40
2019-03-12T19:53:27.709Z,98.40
2019-03-12T19:55:58.972Z,98.30
2019-03-12T19:58:30.820Z,98.20
2019-03-12T20:01:02.218Z,98.30
2019-03-12T20:03:45.130Z,98.40
2019-03-12T20:06:27.125Z,98.50
2019-03-12T20:08:49.557Z,98.70
2019-03-12T20:12:11.325Z,98.70
2019-03-12T20:15:13.624Z,98.90
2019-03-12T20:18:25.360Z,99.00
2019-03-12T20:21:36.263Z,99.20
2019-03-12T20:24:50.210Z,99.10
2019-03-12T20:28:06.922Z,99.10
2019-03-12T20:31:27.873Z,99.20
2019-03-12T20:34:37.824Z,99.10
2019-03-12T20:37:58.627Z,99.40
2019-03-12T20:41:07.212Z,99.30
2019-03-12T20:44:29.008Z,99.30
2019-03-12T20:47:48.969Z,99.30
2019-03-12T20:50:55.411Z,99.20
2019-03-12T20:54:31.782Z,99.40
2019-03-12T20:57:38.820Z,99.30
2019-03-12T21:00:45.686Z,99.10
2019-03-12T21:03:54.938Z,99.00
2019-03-12T21:07:02.317Z,99.00
2019-03-12T21:10:32.890Z,99.10
2019-03-12T21:13:58.388Z,99.20
2019-03-12T21:17:16.482Z,98.70
2019-03-12T21:20:28.064Z,98.70
2019-03-12T21:23:34.203Z,98.80
2019-03-12T21:26:52.900Z,98.80
2019-03-12T21:29:45.140Z,98.70
2019-03-12T21:32:17.168Z,98.60
2019-03-12T21:34:50.395Z,98.60
2019-03-12T21:37:21.377Z,98.40
2019-03-12T21:39:55.654Z,98.30
2019-03-12T21:42:25.926Z,98.30
2019-03-12T21:44:59.294Z,98.30
2019-03-12T21:47:30.548Z,98.20
2019-03-12T21:50:06.295Z,98.10
2019-03-12T21:52:39.333Z,98.10
2019-03-12T21:55:11.533Z,98.10
2019-03-12T21:57:44.338Z,97.80
2019-03-12T22:00:15.656Z,97.80
2019-03-12T22:02:49.931Z,97.80
2019-03-12T22:05:22.282Z,97.70
2019-03-12T22:07:57.495Z,97.60
2019-03-12T22:10:29.570Z,97.20
2019-03-12T22:13:00.812Z,97.10
2019-03-12T22:15:33.582Z,97.00
2019-03-12T22:18:04.386Z,96.70
2019-03-12T22:20:35.232Z,96.70
2019-03-12T22:23:16.866Z,96.70
2019-03-12T22:25:47.947Z,96.70
2019-03-12T22:28:18.704Z,96.30
2019-03-12T22:30:52.786Z,96.30
2019-03-12T22:33:23.806Z,96.80
2019-03-12T22:35:56.394Z,96.30
2019-03-12T22:38:27.199Z,96.00
2019-03-12T22:41:16.423Z,96.00
2019-03-12T22:43:45.624Z,95.90
2019-03-12T22:46:16.366Z,95.70
2019-03-12T22:48:50.151Z,95.70
2019-03-12T22:51:23.351Z,95.70
2019-03-12T22:53:55.192Z,95.70
2019-03-12T22:56:27.890Z,95.50
2019-03-12T22:59:00.414Z,95.60
2019-03-12T23:01:52.663Z,95.40
2019-03-12T23:04:42.533Z,95.20
2019-03-12T23:07:33.168Z,95.20
2019-03-12T23:10:06.725Z,95.10
2019-03-12T23:12:39.141Z,95.40
2019-03-12T23:15:12.381Z,95.30
2019-03-12T23:17:47.849Z,95.30
2019-03-12T23:20:19.434Z,95.10
2019-03-12T23:22:53.398Z,95.40
2019-03-12T23:25:25.711Z,95.30
2019-03-12T23:27:58.247Z,95.40
2019-03-12T23:30:29.552Z,95.50
2019-03-12T23:33:08.372Z,95.40
2019-03-12T23:35:42.568Z,95.30
2019-03-12T23:38:13.455Z,95.00
2019-03-12T23:40:46.803Z,95.00
2019-03-12T23:43:18.215Z,95.00
2019-03-12T23:45:50.661Z,95.20
2019-03-12T23:48:21.577Z,95.20
2019-03-12T23:50:53.816Z,95.20
2019-03-12T23:53:24.581Z,95.20
2019-03-12T23:55:57.876Z,95.20
2019-03-12T23:58:34.658Z,95.40
